Time;durP1;ratioP1;P1;durP2;ratioP2;P2;SDS_P1;SDS_P2;PMS_P1;PMS_P2;Temp;Humidity;BMP_temperature;BMP_pressure;BME280_temperature;BME280_humidity;BME280_pressure;Samples;Min_cycle;Max_cycle;Signal;HPM_P1;HPM_P2
2022/09/26 00:01:34;;;;;;;1.60;1.50;;;22.50;41.70;;;;;;4994623;28;20500;-57
2022/09/26 00:04:28;;;;;;;1.40;1.30;;;22.50;41.70;;;;;;4994619;28;20243;-57
2022/09/26 00:06:55;;;;;;;1.40;1.30;;;22.50;41.70;;;;;;4990645;28;20463;-57
2022/09/26 00:09:23;;;;;;;1.20;1.10;;;22.50;41.70;;;;;;4994662;28;20571;-59
2022/09/26 00:11:49;;;;;;;1.30;1.20;;;22.50;41.70;;;;;;4991806;28;20548;-57
2022/09/26 00:14:18;;;;;;;1.40;1.30;;;22.50;41.70;;;;;;4991845;28;20480;-57
2022/09/26 00:16:44;;;;;;;1.40;1.30;;;22.50;41.70;;;;;;4992223;28;20224;-57
2022/09/26 00:19:09;;;;;;;1.40;1.30;;;22.50;41.70;;;;;;4994828;28;21338;-58
2022/09/26 00:21:35;;;;;;;1.60;1.50;;;22.50;41.70;;;;;;4992659;28;20265;-58
2022/09/26 00:24:02;;;;;;;1.50;1.40;;;22.50;42.50;;;;;;4993215;28;20322;-57
2022/09/26 00:26:29;;;;;;;1.40;1.30;;;22.50;41.70;;;;;;4994462;28;20252;-63
2022/09/26 00:28:55;;;;;;;3.53;1.33;;;22.50;41.70;;;;;;4995393;28;20887;-57
2022/09/26 00:31:25;;;;;;;2.57;1.30;;;22.50;41.70;;;;;;4993742;28;20466;-59
2022/09/26 00:33:51;;;;;;;1.60;1.50;;;22.50;41.80;;;;;;4991128;28;20445;-58
2022/09/26 00:36:17;;;;;;;1.23;1.13;;;22.50;41.70;;;;;;4991445;28;20481;-61
2022/09/26 00:38:43;;;;;;;1.40;1.30;;;22.50;41.70;;;;;;4990138;28;21003;-61
2022/09/26 00:41:09;;;;;;;1.37;1.20;;;22.50;41.70;;;;;;4990739;28;20322;-57
2022/09/26 00:43:42;;;;;;;1.67;1.27;;;22.50;41.70;;;;;;4988362;28;20469;-57
2022/09/26 00:46:20;;;;;;;1.30;1.20;;;22.50;41.80;;;;;;4993155;28;20220;-59
2022/09/26 00:48:50;;;;;;;1.30;1.20;;;22.50;41.80;;;;;;4992915;28;20476;-56
2022/09/26 00:51:16;;;;;;;1.20;1.10;;;22.50;41.80;;;;;;4989296;28;20968;-60
2022/09/26 00:53:45;;;;;;;1.23;1.13;;;22.50;41.80;;;;;;4991270;28;20474;-57
2022/09/26 00:56:21;;;;;;;2.53;1.70;;;22.50;41.70;;;;;;4991141;28;20227;-57
2022/09/26 00:59:06;;;;;;;1.60;1.50;;;22.50;41.70;;;;;;4991732;28;20464;-59
2022/09/26 01:01:33;;;;;;;4.03;2.13;;;22.50;41.80;;;;;;4993221;28;20465;-57
2022/09/26 01:04:00;;;;;;;1.30;1.20;;;22.50;41.80;;;;;;4992664;28;20508;-59
2022/09/26 01:06:26;;;;;;;1.40;1.30;;;22.50;41.80;;;;;;4991571;28;20465;-62
2022/09/26 01:08:56;;;;;;;1.33;1.23;;;22.50;41.90;;;;;;4991765;28;20574;-57
2022/09/26 01:11:21;;;;;;;1.50;1.40;;;22.50;41.80;;;;;;4990215;28;20943;-58
2022/09/26 01:13:49;;;;;;;4.43;1.90;;;22.50;42.60;;;;;;4991822;28;20459;-57
2022/09/26 01:16:15;;;;;;;1.30;1.20;;;22.50;41.80;;;;;;4985332;28;20498;-57
2022/09/26 01:18:42;;;;;;;1.30;1.20;;;22.50;41.80;;;;;;4988832;28;20473;-61
2022/09/26 01:21:41;;;;;;;1.23;1.13;;;22.50;41.80;;;;;;4990403;28;20262;-58
2022/09/26 01:24:38;;;;;;;1.20;1.10;;;22.50;41.80;;;;;;4989801;28;20484;-63
2022/09/26 01:27:20;;;;;;;1.23;1.13;;;22.50;41.80;;;;;;4989331;28;20574;-62
2022/09/26 01:30:10;;;;;;;1.20;1.10;;;22.40;41.70;;;;;;4987969;28;20830;-60
2022/09/26 01:32:48;;;;;;;1.43;1.33;;;22.40;41.80;;;;;;4992850;28;20558;-63
2022/09/26 01:35:30;;;;;;;1.40;1.30;;;22.50;42.20;;;;;;4991776;28;21006;-58
2022/09/26 01:38:11;;;;;;;3.67;1.30;;;22.40;41.70;;;;;;4990009;28;20480;-61
2022/09/26 01:41:01;;;;;;;1.40;1.30;;;22.50;41.90;;;;;;4987839;28;20473;-61
2022/09/26 01:43:54;;;;;;;1.30;1.20;;;22.50;41.90;;;;;;4995422;28;20461;-60
2022/09/26 01:46:50;;;;;;;1.10;1.07;;;22.40;41.80;;;;;;4992385;28;20468;-56
2022/09/26 01:49:44;;;;;;;1.33;1.23;;;22.40;42.00;;;;;;4994273;28;20472;-58
2022/09/26 01:52:29;;;;;;;1.27;1.10;;;22.50;42.00;;;;;;4996579;28;20984;-59
2022/09/26 01:55:01;;;;;;;1.50;1.40;;;22.40;41.80;;;;;;4996725;28;20972;-60
2022/09/26 01:57:37;;;;;;;1.30;1.20;;;22.50;41.90;;;;;;4995600;28;20467;-59
2022/09/26 02:00:06;;;;;;;1.30;1.20;;;22.40;41.80;;;;;;4992886;28;20468;-58
2022/09/26 02:02:37;;;;;;;2.50;1.37;;;22.50;42.00;;;;;;4996226;28;20476;-62
2022/09/26 02:05:08;;;;;;;1.27;1.17;;;22.40;41.80;;;;;;4991029;28;20493;-57
2022/09/26 02:07:46;;;;;;;4.23;1.53;;;22.50;41.90;;;;;;4992112;28;20548;-58
2022/09/26 02:10:17;;;;;;;1.30;1.20;;;22.50;41.90;;;;;;4993333;28;20468;-57
2022/09/26 02:12:46;;;;;;;1.93;1.20;;;22.50;41.90;;;;;;4992365;28;20878;-58
2022/09/26 02:15:17;;;;;;;1.20;1.10;;;22.50;41.90;;;;;;4993464;28;20465;-58
2022/09/26 02:17:48;;;;;;;1.37;1.20;;;22.50;41.90;;;;;;4990986;28;20523;-57
2022/09/26 02:20:18;;;;;;;1.30;1.20;;;22.50;41.90;;;;;;4988866;28;20608;-58
2022/09/26 02:22:44;;;;;;;1.47;1.37;;;22.50;41.90;;;;;;4987625;28;20473;-64
2022/09/26 02:25:10;;;;;;;1.20;1.10;;;22.50;41.90;;;;;;4987270;28;20573;-57
2022/09/26 02:27:36;;;;;;;1.30;1.20;;;22.50;42.00;;;;;;4988107;28;20560;-62
2022/09/26 02:30:03;;;;;;;1.30;1.20;;;22.50;41.90;;;;;;4992530;28;20469;-61
2022/09/26 02:32:31;;;;;;;1.53;1.43;;;22.40;41.80;;;;;;4989727;28;20223;-59
2022/09/26 02:34:57;;;;;;;1.50;1.40;;;22.50;41.90;;;;;;4987810;28;22677;-62
2022/09/26 02:37:24;;;;;;;1.50;1.40;;;22.40;41.80;;;;;;4989401;28;20473;-57
2022/09/26 02:39:51;;;;;;;1.30;1.20;;;22.50;41.90;;;;;;4992466;28;20550;-57
2022/09/26 02:42:35;;;;;;;1.27;1.17;;;22.50;41.90;;;;;;4988975;28;20491;-58
2022/09/26 02:45:10;;;;;;;1.20;1.10;;;22.50;41.90;;;;;;4989366;28;20496;-58
2022/09/26 02:47:54;;;;;;;1.20;1.10;;;22.40;41.80;;;;;;4988560;28;20461;-59
2022/09/26 02:50:48;;;;;;;1.20;1.10;;;22.40;41.80;;;;;;4990392;28;20475;-57
2022/09/26 02:53:19;;;;;;;1.40;1.30;;;22.40;41.90;;;;;;4990167;28;20469;-58
2022/09/26 02:55:55;;;;;;;1.23;1.13;;;22.40;41.80;;;;;;4988875;28;20556;-59
2022/09/26 02:58:58;;;;;;;1.50;1.40;;;22.50;42.00;;;;;;4989277;28;20487;-59
2022/09/26 03:01:42;;;;;;;1.47;1.37;;;22.50;41.90;;;;;;4988894;28;20555;-64
2022/09/26 03:04:28;;;;;;;1.33;1.13;;;22.40;42.00;;;;;;4984703;28;20481;-58
2022/09/26 03:07:00;;;;;;;1.20;1.10;;;22.40;41.90;;;;;;4991931;28;20461;-56
2022/09/26 03:09:28;;;;;;;1.50;1.40;;;22.40;41.80;;;;;;4989395;28;20478;-64
2022/09/26 03:11:57;;;;;;;1.23;1.13;;;22.40;41.90;;;;;;4973220;28;20452;-60
2022/09/26 03:14:23;;;;;;;1.40;1.30;;;22.50;42.00;;;;;;4990167;28;20497;-58
2022/09/26 03:16:50;;;;;;;1.40;1.20;;;22.40;41.90;;;;;;4990472;28;20533;-59
2022/09/26 03:19:35;;;;;;;1.30;1.20;;;22.40;42.00;;;;;;4993325;28;20250;-58
2022/09/26 03:22:01;;;;;;;1.20;1.10;;;22.40;41.90;;;;;;4987548;28;20499;-60
2022/09/26 03:24:27;;;;;;;1.40;1.30;;;22.40;42.00;;;;;;4989075;28;20445;-61
2022/09/26 03:26:54;;;;;;;1.00;1.00;;;22.40;41.90;;;;;;4991974;28;20960;-60
2022/09/26 03:29:19;;;;;;;1.30;1.20;;;22.40;41.90;;;;;;4993628;28;20465;-60
2022/09/26 03:31:45;;;;;;;1.40;1.30;;;22.40;42.00;;;;;;4990943;28;20473;-59
2022/09/26 03:34:11;;;;;;;1.20;1.10;;;22.40;41.90;;;;;;4988389;28;20286;-62
2022/09/26 03:36:38;;;;;;;1.30;1.20;;;22.40;41.90;;;;;;4993063;28;20460;-60
2022/09/26 03:39:04;;;;;;;1.40;1.30;;;22.40;41.90;;;;;;4987034;28;20227;-58
2022/09/26 03:41:30;;;;;;;1.40;1.30;;;22.40;42.00;;;;;;4990594;28;20481;-60
2022/09/26 03:43:56;;;;;;;1.40;1.30;;;22.40;41.90;;;;;;4990553;28;20299;-60
2022/09/26 03:46:23;;;;;;;1.50;1.40;;;22.40;41.90;;;;;;4991447;28;20274;-59
2022/09/26 03:48:49;;;;;;;2.27;1.40;;;22.40;41.90;;;;;;4986962;28;21046;-57
2022/09/26 03:51:15;;;;;;;1.20;1.10;;;22.40;41.90;;;;;;4988978;28;20465;-61
2022/09/26 03:53:43;;;;;;;1.30;1.20;;;22.40;41.90;;;;;;4989695;28;20464;-57
2022/09/26 03:56:15;;;;;;;1.53;1.30;;;22.40;41.80;;;;;;4992558;28;20457;-57
2022/09/26 03:58:41;;;;;;;1.30;1.20;;;22.40;41.90;;;;;;4991011;28;20541;-58
2022/09/26 04:01:13;;;;;;;1.50;1.40;;;22.40;41.90;;;;;;4989887;28;20897;-64
2022/09/26 04:03:40;;;;;;;1.60;1.10;;;22.50;42.00;;;;;;4987792;28;20828;-57
2022/09/26 04:06:08;;;;;;;1.30;1.20;;;22.40;41.90;;;;;;4987409;28;20468;-61
2022/09/26 04:08:38;;;;;;;1.20;1.10;;;22.40;41.90;;;;;;4990826;28;20588;-58
2022/09/26 04:11:12;;;;;;;1.23;1.13;;;22.40;41.90;;;;;;4990536;28;20820;-58
2022/09/26 04:13:38;;;;;;;1.27;1.10;;;22.40;41.90;;;;;;4985880;28;20465;-63
2022/09/26 04:16:05;;;;;;;1.30;1.20;;;22.40;41.80;;;;;;4986492;28;20461;-59
2022/09/26 04:18:31;;;;;;;1.30;1.20;;;22.40;41.90;;;;;;5004497;28;20487;-58
2022/09/26 04:21:12;;;;;;;1.40;1.30;;;22.40;41.90;;;;;;4987255;28;20539;-62
2022/09/26 04:23:39;;;;;;;1.30;1.20;;;22.40;41.80;;;;;;4992092;28;20701;-64
2022/09/26 04:26:10;;;;;;;1.40;1.30;;;22.40;41.90;;;;;;4988294;28;20490;-61
2022/09/26 04:28:37;;;;;;;1.30;1.20;;;22.40;42.20;;;;;;4989363;28;20975;-59
2022/09/26 04:31:05;;;;;;;1.00;1.00;;;22.50;41.90;;;;;;4986712;28;21158;-58
2022/09/26 04:33:31;;;;;;;1.33;1.23;;;22.50;41.80;;;;;;4982339;28;20461;-58
2022/09/26 04:35:59;;;;;;;2.13;1.10;;;22.50;41.70;;;;;;4990088;28;20539;-60
2022/09/26 04:38:32;;;;;;;1.30;1.20;;;22.50;41.70;;;;;;4991909;28;20271;-56
2022/09/26 04:41:08;;;;;;;1.30;1.20;;;22.50;41.50;;;;;;4991306;28;20609;-60
2022/09/26 04:43:34;;;;;;;1.20;1.10;;;22.50;41.40;;;;;;4987297;28;20571;-62
2022/09/26 04:46:01;;;;;;;1.37;1.27;;;22.50;41.40;;;;;;4991880;28;20611;-58
2022/09/26 04:48:27;;;;;;;1.53;1.43;;;22.50;41.40;;;;;;4989798;28;20464;-61
2022/09/26 04:50:53;;;;;;;1.37;1.27;;;22.50;41.40;;;;;;4987328;28;20469;-59
2022/09/26 04:53:18;;;;;;;1.30;1.20;;;22.50;41.40;;;;;;4984444;28;20842;-57
2022/09/26 04:55:46;;;;;;;1.57;1.23;;;22.50;41.40;;;;;;4991185;28;20231;-57
2022/09/26 04:58:13;;;;;;;1.40;1.30;;;22.50;41.40;;;;;;4993330;28;20243;-58
2022/09/26 05:00:46;;;;;;;1.37;1.27;;;22.50;41.50;;;;;;4989773;28;20553;-64
2022/09/26 05:03:12;;;;;;;1.33;1.23;;;22.50;41.40;;;;;;4993100;28;20483;-57
2022/09/26 05:05:39;;;;;;;3.30;1.60;;;22.60;41.50;;;;;;4988453;28;20470;-57
2022/09/26 05:08:05;;;;;;;1.37;1.27;;;22.50;41.40;;;;;;4973555;28;20585;-57
2022/09/26 05:10:30;;;;;;;1.23;1.13;;;22.50;41.40;;;;;;4986151;28;20946;-59
2022/09/26 05:12:58;;;;;;;2.13;1.30;;;22.50;41.40;;;;;;4990451;28;20267;-62
2022/09/26 05:15:24;;;;;;;1.20;1.10;;;22.50;41.40;;;;;;4983135;28;20227;-56
2022/09/26 05:17:59;;;;;;;1.00;1.00;;;22.50;41.40;;;;;;4988019;28;20449;-58
2022/09/26 05:20:30;;;;;;;1.30;1.20;;;22.50;41.40;;;;;;5004628;28;20237;-61
2022/09/26 05:22:59;;;;;;;1.33;1.23;;;22.50;41.50;;;;;;4984059;28;21203;-59
2022/09/26 05:28:10;;;;;;;1.23;1.13;;;22.50;41.40;;;;;;4987777;28;20472;-60
2022/09/26 05:30:36;;;;;;;1.77;1.13;;;22.50;41.40;;;;;;4987461;28;20803;-61
2022/09/26 05:33:01;;;;;;;1.20;1.10;;;22.50;41.40;;;;;;4988893;28;20280;-59
2022/09/26 05:35:27;;;;;;;1.40;1.30;;;22.50;41.40;;;;;;4990233;28;20227;-61
2022/09/26 05:38:02;;;;;;;1.77;1.67;;;22.50;41.40;;;;;;4985269;28;20706;-60
2022/09/26 05:43:13;;;;;;;1.47;1.37;;;22.50;41.40;;;;;;4990297;28;20493;-57
2022/09/26 05:45:39;;;;;;;1.73;1.40;;;22.60;41.50;;;;;;4991484;28;20557;-60
2022/09/26 05:48:04;;;;;;;1.27;1.17;;;22.50;41.40;;;;;;4986889;28;20220;-60
2022/09/26 05:50:31;;;;;;;1.30;1.20;;;22.50;41.40;;;;;;4991113;28;20484;-61
2022/09/26 05:52:58;;;;;;;1.27;1.17;;;22.50;41.40;;;;;;4994247;28;20729;-58
2022/09/26 05:55:24;;;;;;;1.20;1.10;;;22.50;41.40;;;;;;4991743;28;20610;-60
2022/09/26 05:57:57;;;;;;;1.20;1.10;;;22.60;41.50;;;;;;4984444;28;20573;-58
2022/09/26 06:00:23;;;;;;;1.77;1.20;;;22.50;41.40;;;;;;4985647;28;20983;-58
2022/09/26 06:02:55;;;;;;;1.10;1.00;;;22.50;41.40;;;;;;4987201;28;20595;-59
2022/09/26 06:05:22;;;;;;;1.23;1.13;;;22.60;41.50;;;;;;4986005;28;20468;-61
2022/09/26 06:07:48;;;;;;;2.30;1.30;;;22.50;41.40;;;;;;4989879;28;20465;-59
2022/09/26 06:10:14;;;;;;;1.20;1.10;;;22.50;41.40;;;;;;4984265;28;20567;-59
2022/09/26 06:12:39;;;;;;;1.30;1.20;;;22.50;41.40;;;;;;4988161;28;20453;-59
2022/09/26 06:15:05;;;;;;;1.40;1.30;;;22.50;41.40;;;;;;4984067;28;20227;-64
2022/09/26 06:17:31;;;;;;;3.43;1.60;;;22.50;41.40;;;;;;4989364;28;20227;-62
2022/09/26 06:19:57;;;;;;;2.10;1.33;;;22.50;41.40;;;;;;4985666;28;20254;-61
2022/09/26 06:22:23;;;;;;;1.50;1.40;;;22.60;41.50;;;;;;4987089;28;21033;-58
2022/09/26 06:24:48;;;;;;;1.10;1.00;;;22.50;41.40;;;;;;4991438;28;20238;-67
2022/09/26 06:27:14;;;;;;;1.57;1.43;;;22.50;41.40;;;;;;4989589;28;20457;-61
2022/09/26 06:29:40;;;;;;;1.70;1.60;;;22.50;41.40;;;;;;4991773;28;20212;-60
2022/09/26 06:32:05;;;;;;;1.40;1.30;;;22.50;41.40;;;;;;4990259;28;20223;-58
2022/09/26 06:34:31;;;;;;;1.40;1.20;;;22.50;41.40;;;;;;4989659;28;20227;-65
2022/09/26 06:36:57;;;;;;;3.53;1.30;;;22.50;41.40;;;;;;4990372;28;20250;-59
2022/09/26 06:39:29;;;;;;;1.17;1.10;;;22.60;41.50;;;;;;4988198;28;20698;-61
2022/09/26 06:41:55;;;;;;;1.30;1.20;;;22.50;41.50;;;;;;4990114;28;20461;-61
2022/09/26 06:44:22;;;;;;;1.30;1.20;;;22.50;41.40;;;;;;4990411;28;20481;-58
2022/09/26 06:46:48;;;;;;;1.20;1.10;;;22.50;41.40;;;;;;4987124;28;20223;-64
2022/09/26 06:49:14;;;;;;;1.97;1.37;;;22.50;41.40;;;;;;4988960;28;21050;-61
2022/09/26 06:51:39;;;;;;;1.37;1.27;;;22.50;41.40;;;;;;4983758;28;20614;-62
2022/09/26 06:54:05;;;;;;;1.40;1.30;;;22.50;41.40;;;;;;4990799;28;20226;-59
2022/09/26 06:56:30;;;;;;;1.43;1.33;;;22.50;41.40;;;;;;4989526;28;20227;-66
2022/09/26 06:58:56;;;;;;;1.30;1.20;;;22.50;41.40;;;;;;4991269;28;20239;-65
2022/09/26 07:01:21;;;;;;;1.33;1.23;;;22.60;41.50;;;;;;4988783;28;20234;-58
2022/09/26 07:03:47;;;;;;;1.10;1.00;;;22.60;41.50;;;;;;4988804;28;20247;-60
2022/09/26 07:06:13;;;;;;;1.20;1.10;;;22.60;41.50;;;;;;4989132;28;20226;-62
2022/09/26 07:08:39;;;;;;;2.13;1.20;;;22.60;41.50;;;;;;4991201;28;20467;-61
2022/09/26 07:11:05;;;;;;;2.23;1.30;;;22.60;41.60;;;;;;4986107;28;20247;-62
2022/09/26 07:13:30;;;;;;;1.37;1.27;;;22.60;41.50;;;;;;4989310;28;20227;-60
2022/09/26 07:15:57;;;;;;;1.40;1.30;;;22.60;41.50;;;;;;4989821;28;20232;-57
2022/09/26 07:18:23;;;;;;;1.27;1.17;;;22.60;41.50;;;;;;4988633;28;20274;-61
2022/09/26 07:20:48;;;;;;;1.43;1.30;;;22.60;41.50;;;;;;4988204;28;20450;-60
2022/09/26 07:23:15;;;;;;;1.50;1.40;;;22.60;41.50;;;;;;4991507;28;20238;-62
2022/09/26 07:25:44;;;;;;;1.33;1.23;;;22.60;41.50;;;;;;4987717;28;20297;-58
2022/09/26 07:28:10;;;;;;;2.03;1.20;;;22.60;41.60;;;;;;4990520;28;20464;-58
2022/09/26 07:30:35;;;;;;;1.20;1.10;;;22.60;41.50;;;;;;4985938;28;20510;-57
2022/09/26 07:33:03;;;;;;;1.50;1.40;;;22.60;41.60;;;;;;4972319;28;20589;-60
2022/09/26 07:35:30;;;;;;;1.20;1.10;;;22.60;41.50;;;;;;4984100;28;20322;-63
2022/09/26 07:37:56;;;;;;;1.83;1.40;;;22.60;41.50;;;;;;4986350;28;20465;-58
2022/09/26 07:40:22;;;;;;;1.40;1.30;;;22.60;41.50;;;;;;4986988;28;20469;-62
2022/09/26 07:42:47;;;;;;;1.23;1.13;;;22.60;41.50;;;;;;4988397;28;20469;-58
2022/09/26 07:45:13;;;;;;;1.40;1.30;;;22.60;41.50;;;;;;4983191;28;20250;-57
2022/09/26 07:50:23;;;;;;;1.73;1.10;;;22.60;41.50;;;;;;4989699;28;20250;-59
2022/09/26 07:52:49;;;;;;;2.10;1.27;;;22.60;41.50;;;;;;4986334;28;20956;-57
2022/09/26 07:55:18;;;;;;;1.60;1.50;;;22.60;41.50;;;;;;4983467;28;20866;-58
2022/09/26 07:57:47;;;;;;;1.30;1.13;;;22.50;41.40;;;;;;4968695;28;20828;-58
2022/09/26 08:00:16;;;;;;;1.43;1.33;;;22.60;41.50;;;;;;4982264;28;20519;-58
2022/09/26 08:02:45;;;;;;;1.30;1.20;;;22.50;41.40;;;;;;4993935;28;20478;-59
2022/09/26 08:05:23;;;;;;;1.43;1.30;;;22.60;41.50;;;;;;4988710;28;21070;-60
2022/09/26 08:07:49;;;;;;;2.50;1.13;;;22.50;41.40;;;;;;4992863;28;20474;-58
2022/09/26 08:10:21;;;;;;;1.60;1.40;;;22.60;41.50;;;;;;4995008;28;20975;-62
2022/09/26 08:12:47;;;;;;;2.60;1.20;;;22.50;41.40;;;;;;5009178;28;20661;-60
2022/09/26 08:15:13;;;;;;;1.70;1.60;;;22.60;41.80;;;;;;4997039;28;20489;-63
2022/09/26 08:17:39;;;;;;;2.10;1.30;;;22.50;41.40;;;;;;4994069;28;20467;-59
2022/09/26 08:20:06;;;;;;;2.70;1.87;;;22.50;41.40;;;;;;4990352;28;20472;-57
2022/09/26 08:22:31;;;;;;;1.40;1.30;;;22.60;41.60;;;;;;4991475;28;20839;-61
2022/09/26 08:24:59;;;;;;;1.53;1.20;;;22.50;41.40;;;;;;4996130;28;20473;-62
2022/09/26 08:27:25;;;;;;;1.90;1.43;;;22.50;41.40;;;;;;4994950;28;20232;-60
2022/09/26 08:29:51;;;;;;;1.77;1.30;;;22.50;42.10;;;;;;4989203;28;20445;-61
2022/09/26 08:32:20;;;;;;;1.80;1.40;;;22.50;41.40;;;;;;4996870;28;20461;-60
2022/09/26 08:34:46;;;;;;;1.80;1.30;;;22.50;41.40;;;;;;4990785;28;20330;-57
2022/09/26 08:37:12;;;;;;;1.30;1.20;;;22.50;41.40;;;;;;4987456;28;20879;-60
2022/09/26 08:39:38;;;;;;;1.70;1.40;;;22.50;41.40;;;;;;4995753;28;20472;-60
2022/09/26 08:42:10;;;;;;;1.17;1.03;;;22.50;41.40;;;;;;4995950;28;20461;-60
2022/09/26 08:44:59;;;;;;;2.70;1.50;;;22.50;41.40;;;;;;4993308;28;20227;-62
2022/09/26 08:47:43;;;;;;;1.33;1.23;;;22.50;41.40;;;;;;4994208;28;20469;-57
2022/09/26 08:50:33;;;;;;;2.13;1.60;;;22.50;41.40;;;;;;4992637;28;20631;-58
2022/09/26 08:53:08;;;;;;;1.33;1.23;;;22.50;41.40;;;;;;4994637;28;20468;-60
2022/09/26 08:55:41;;;;;;;1.50;1.40;;;22.50;41.40;;;;;;4983669;28;20531;-62
2022/09/26 08:58:20;;;;;;;1.30;1.20;;;22.50;41.40;;;;;;4985480;28;20522;-62
2022/09/26 09:00:50;;;;;;;1.53;1.37;;;22.50;41.40;;;;;;4986671;28;20506;-59
2022/09/26 09:03:30;;;;;;;1.70;1.60;;;22.50;41.50;;;;;;4980805;28;20470;-57
2022/09/26 09:06:06;;;;;;;1.50;1.40;;;22.50;41.40;;;;;;4991194;28;20605;-57
2022/09/26 09:08:41;;;;;;;1.30;1.20;;;22.50;41.40;;;;;;4991520;28;20469;-60
2022/09/26 09:11:33;;;;;;;2.40;1.30;;;22.50;41.40;;;;;;4990070;28;20522;-59
2022/09/26 09:14:26;;;;;;;1.33;1.23;;;22.50;41.40;;;;;;4993891;28;20482;-59
2022/09/26 09:17:04;;;;;;;1.40;1.30;;;22.50;41.40;;;;;;4990498;28;20461;-59
2022/09/26 09:19:32;;;;;;;1.30;1.20;;;22.50;41.40;;;;;;4986208;28;20605;-58
2022/09/26 09:22:37;;;;;;;1.27;1.17;;;22.50;41.40;;;;;;4992391;28;20928;-59
2022/09/26 09:25:14;;;;;;;1.40;1.30;;;22.50;41.40;;;;;;4988685;28;21042;-59
2022/09/26 09:27:45;;;;;;;2.30;1.27;;;22.50;42.10;;;;;;4993698;28;20567;-57
2022/09/26 09:30:55;;;;;;;1.27;1.17;;;22.50;41.40;;;;;;4991195;28;20473;-57
2022/09/26 09:33:48;;;;;;;1.50;1.30;;;22.50;41.40;;;;;;4990372;28;20511;-63
2022/09/26 09:36:20;;;;;;;1.47;1.33;;;22.50;41.40;;;;;;4989873;28;20515;-59
2022/09/26 09:38:48;;;;;;;2.20;1.40;;;22.50;41.40;;;;;;4973691;28;20472;-65
2022/09/26 09:41:23;;;;;;;1.60;1.50;;;22.50;41.40;;;;;;4991493;28;20465;-59
2022/09/26 09:43:56;;;;;;;1.57;1.47;;;22.50;41.40;;;;;;4988937;28;20488;-58
2022/09/26 09:46:27;;;;;;;1.40;1.30;;;22.50;41.40;;;;;;4994897;28;20479;-60
2022/09/26 09:49:19;;;;;;;1.33;1.23;;;22.40;41.30;;;;;;4996204;28;20461;-57
2022/09/26 09:51:51;;;;;;;1.10;1.00;;;22.50;41.40;;;;;;4983083;28;20464;-59
2022/09/26 09:54:50;;;;;;;1.37;1.20;;;22.50;41.40;;;;;;4990568;28;20489;-60
2022/09/26 09:57:47;;;;;;;1.73;1.20;;;22.40;41.30;;;;;;4993500;28;20461;-58
2022/09/26 10:00:21;;;;;;;1.83;1.17;;;22.50;42.20;;;;;;4989663;28;20476;-61
2022/09/26 10:03:13;;;;;;;1.20;1.10;;;22.50;41.40;;;;;;4987273;28;20863;-60
2022/09/26 10:05:44;;;;;;;1.60;1.30;;;22.50;41.40;;;;;;4985781;28;20472;-64
2022/09/26 10:08:16;;;;;;;1.70;1.10;;;22.50;41.40;;;;;;4990298;28;20866;-62
2022/09/26 10:11:07;;;;;;;1.53;1.43;;;22.50;41.40;;;;;;4989784;28;20492;-63
2022/09/26 10:13:34;;;;;;;1.13;1.03;;;22.40;41.30;;;;;;4993688;28;20466;-63
2022/09/26 10:16:03;;;;;;;1.77;1.20;;;22.40;41.30;;;;;;4987993;28;20464;-58
2022/09/26 10:18:30;;;;;;;1.30;1.20;;;22.40;41.30;;;;;;4991232;28;20451;-58
2022/09/26 10:21:10;;;;;;;2.07;1.30;;;22.50;41.40;;;;;;4992244;28;20532;-59
2022/09/26 10:23:40;;;;;;;1.40;1.30;;;22.40;41.30;;;;;;4990139;28;20473;-58
2022/09/26 10:26:08;;;;;;;1.67;1.20;;;22.40;41.30;;;;;;4992385;28;20456;-59
2022/09/26 10:28:41;;;;;;;1.57;1.20;;;22.50;41.40;;;;;;4983712;28;20465;-60
2022/09/26 10:31:09;;;;;;;1.17;1.00;;;22.40;41.30;;;;;;4986466;28;20464;-58
2022/09/26 10:33:42;;;;;;;1.20;1.10;;;22.50;41.40;;;;;;4995229;28;20593;-58
2022/09/26 10:36:35;;;;;;;1.60;1.30;;;22.50;41.40;;;;;;4995108;28;20480;-58
2022/09/26 10:42:01;;;;;;;1.30;1.20;;;22.40;41.30;;;;;;4995566;28;20556;-59
2022/09/26 10:44:33;;;;;;;5.90;1.10;;;22.50;41.40;;;;;;5000993;28;20461;-64
2022/09/26 10:47:11;;;;;;;1.90;1.80;;;22.50;41.40;;;;;;4995006;28;20983;-60
2022/09/26 10:49:47;;;;;;;1.20;1.10;;;22.50;41.40;;;;;;4999291;28;20471;-62
2022/09/26 10:52:41;;;;;;;1.23;1.13;;;22.40;41.40;;;;;;4993187;28;20456;-58
2022/09/26 10:55:29;;;;;;;1.50;1.40;;;22.50;41.40;;;;;;4990753;28;20465;-60
2022/09/26 10:57:58;;;;;;;2.50;1.30;;;22.40;41.30;;;;;;4992185;28;20580;-58
2022/09/26 11:00:35;;;;;;;1.30;1.17;;;22.50;41.40;;;;;;4990304;28;20453;-58
2022/09/26 11:03:07;;;;;;;1.30;1.10;;;22.40;41.30;;;;;;4992131;28;20477;-58
2022/09/26 11:08:20;;;;;;;1.20;1.10;;;22.50;41.40;;;;;;4998769;28;20475;-58
2022/09/26 11:10:47;;;;;;;1.40;1.30;;;22.50;41.40;;;;;;4996466;28;20452;-58
2022/09/26 11:13:18;;;;;;;2.70;1.40;;;22.50;41.40;;;;;;4998874;28;20468;-58
2022/09/26 11:16:09;;;;;;;1.90;1.20;;;22.50;41.40;;;;;;4996640;28;20462;-58
2022/09/26 11:18:43;;;;;;;2.07;1.33;;;22.50;41.40;;;;;;4991485;28;20482;-58
2022/09/26 11:21:36;;;;;;;1.20;1.10;;;22.50;41.40;;;;;;4992953;28;21130;-57
2022/09/26 11:24:11;;;;;;;1.10;1.00;;;22.50;41.40;;;;;;4988865;28;20484;-57
2022/09/26 11:26:50;;;;;;;1.20;1.10;;;22.40;41.30;;;;;;4993986;28;20478;-58
2022/09/26 11:29:33;;;;;;;1.70;1.10;;;22.50;41.40;;;;;;4990988;28;20468;-58
2022/09/26 11:31:59;;;;;;;2.37;1.20;;;22.40;41.30;;;;;;4992735;28;20472;-60
2022/09/26 11:34:30;;;;;;;1.57;1.10;;;22.50;41.40;;;;;;4990870;28;20817;-63
2022/09/26 11:37:04;;;;;;;2.60;1.10;;;22.50;41.40;;;;;;4992613;28;20233;-61
2022/09/26 11:39:35;;;;;;;1.50;1.17;;;22.50;41.40;;;;;;4990114;28;20560;-58
2022/09/26 11:42:13;;;;;;;1.00;0.90;;;22.50;41.40;;;;;;4998250;28;20464;-59
2022/09/26 11:44:50;;;;;;;1.10;1.00;;;22.50;41.40;;;;;;4997411;28;20535;-61
2022/09/26 11:47:33;;;;;;;1.53;1.20;;;22.50;41.40;;;;;;4995619;28;20465;-60
2022/09/26 11:50:09;;;;;;;0.90;0.90;;;22.50;42.10;;;;;;4978406;28;20473;-61
2022/09/26 11:53:03;;;;;;;1.53;1.30;;;22.50;41.40;;;;;;4987160;28;20497;-60
2022/09/26 11:55:56;;;;;;;1.37;1.27;;;22.50;41.40;;;;;;4988288;28;20600;-63
2022/09/26 11:58:45;;;;;;;1.20;1.10;;;22.50;41.50;;;;;;4980841;28;20491;-60
2022/09/26 12:01:53;;;;;;;1.40;1.30;;;22.40;41.30;;;;;;4992504;28;21238;-57
2022/09/26 12:04:48;;;;;;;1.17;1.07;;;22.50;41.40;;;;;;4968581;28;20460;-58
2022/09/26 12:07:42;;;;;;;1.40;1.30;;;22.50;41.40;;;;;;4980713;28;20474;-64
2022/09/26 12:10:40;;;;;;;2.60;1.20;;;22.50;41.40;;;;;;4979374;28;20531;-61
2022/09/26 12:13:52;;;;;;;1.40;1.30;;;22.50;41.40;;;;;;4991176;28;20472;-60
2022/09/26 12:16:20;;;;;;;1.50;1.40;;;22.40;41.30;;;;;;4911026;28;20432;-60
2022/09/26 12:18:56;;;;;;;1.37;1.27;;;22.50;40.80;;;;;;4988809;28;20473;-60
2022/09/26 12:21:38;;;;;;;1.80;1.70;;;22.50;40.80;;;;;;4983310;28;20853;-58
2022/09/26 12:24:22;;;;;;;1.43;1.33;;;22.50;40.90;;;;;;4991548;28;21018;-58
2022/09/26 12:27:16;;;;;;;1.40;1.30;;;22.50;40.90;;;;;;4984980;28;20448;-58
2022/09/26 12:29:47;;;;;;;1.50;1.40;;;22.50;41.00;;;;;;4990955;28;20469;-57
2022/09/26 12:32:15;;;;;;;1.97;1.43;;;22.50;41.10;;;;;;4990283;28;20476;-57
2022/09/26 12:35:00;;;;;;;1.60;1.50;;;22.40;41.00;;;;;;4990193;28;20476;-57
2022/09/26 12:37:32;;;;;;;1.60;1.50;;;22.40;41.10;;;;;;4984815;28;21140;-59
2022/09/26 12:40:38;;;;;;;1.40;1.30;;;22.40;41.10;;;;;;4990367;28;20468;-63
2022/09/26 12:43:43;;;;;;;1.60;1.50;;;22.50;41.20;;;;;;4984317;28;20555;-62
2022/09/26 12:46:25;;;;;;;1.60;1.50;;;22.40;41.10;;;;;;4988256;28;20469;-58
2022/09/26 12:49:08;;;;;;;3.70;1.60;;;22.40;42.10;;;;;;4991741;28;20472;-57
2022/09/26 12:51:42;;;;;;;1.30;1.20;;;22.40;41.20;;;;;;4993954;28;20464;-58
2022/09/26 12:54:40;;;;;;;1.40;1.30;;;22.40;41.20;;;;;;4992659;28;20955;-62
2022/09/26 12:57:24;;;;;;;1.50;1.40;;;22.40;41.30;;;;;;4993443;28;20496;-58
2022/09/26 12:59:59;;;;;;;1.57;1.47;;;22.40;41.30;;;;;;4989214;28;20464;-63
2022/09/26 13:02:31;;;;;;;1.40;1.27;;;22.40;41.30;;;;;;4989853;28;20530;-65
2022/09/26 13:05:29;;;;;;;1.57;1.40;;;22.40;41.20;;;;;;4987996;28;20584;-63
2022/09/26 13:08:20;;;;;;;1.80;1.40;;;22.40;41.20;;;;;;4986905;28;20453;-59
2022/09/26 13:11:04;;;;;;;1.40;1.30;;;22.40;41.20;;;;;;4986351;28;20951;-64
2022/09/26 13:13:44;;;;;;;1.30;1.20;;;22.40;41.30;;;;;;4988940;28;20471;-63
2022/09/26 13:16:42;;;;;;;1.30;1.20;;;22.40;42.10;;;;;;4987035;28;20461;-65
2022/09/26 13:19:21;;;;;;;1.33;1.23;;;22.40;41.30;;;;;;4989598;28;20988;-59
2022/09/26 13:22:04;;;;;;;1.40;1.30;;;22.40;41.30;;;;;;4968056;28;20461;-60
2022/09/26 13:24:48;;;;;;;1.53;1.43;;;22.40;41.30;;;;;;4988664;28;20479;-62
2022/09/26 13:27:30;;;;;;;1.37;1.27;;;22.40;41.30;;;;;;4986174;28;20596;-59
2022/09/26 13:30:16;;;;;;;1.30;1.20;;;22.40;41.30;;;;;;4989358;28;20491;-62
2022/09/26 13:33:02;;;;;;;1.30;1.20;;;22.40;41.30;;;;;;4989334;28;20470;-58
2022/09/26 13:35:30;;;;;;;1.30;1.20;;;22.40;41.30;;;;;;4991484;28;20518;-60